Altamont, Kansas
Current Conditions -  °F | °C
As of 1:52 AM on Sunday 26 Oct 2014 (Local Time) from KPPF Reporting Station
Clear Clear  
Wind Chill: 65°   Ceiling: Unl
Heat Index: 65°   Visibility: 10mi
Dew Point: 62°   Wind: 3mph
Humidity: 90%   Direction: 170°S
Pressure: 29.97"   Gusts: NA
Location:  37.19°N, 95.3°W
Report Text: KPPF 260652Z AUTO 17003KT 10SM CLR 18/17 A2997 RMK AO2 SLP138 T01830167
Loading
Personal Weather Stations






























Interactive Weather Map
Tropical Storm Tracking
New forecast layout! Learn more

10-Day Weather Forecast

Advertisements
Track Severe Weather on mobile